Latest Coastal Weather Observations for Lord Howe Island

IDN60701

Issued at 8:02 pm EDT Wednesday 10 February 2016 (issued every 10 minutes, with the page automatically refreshed every 10 minutes)

About coastal observations | Map of coastal stations | Coastal observations for NSW | Marine services | Other Formats
Station Details ID: 200839 Name: LORD HOWE ISLAND AERO Lat: -31.54 Lon: 159.08 Height: 5.0 m
Data from the previous 72 hours. | See also: Recent months at Lord Howe Island
Date/Time
EDT
Temp

°C
Wind Pressure Rain
since 9am
mm
Weather Cloud Vis
km
Sea
Height
m
Swell
Dir
 
Speed
knots
Gust
knots
hPa Trend Height
m
Period
s
Dir
10/08:00pm 22.4 E 8 14 1014.9 - 0.2 - Partly cloudy 10 - - - -
10/07:30pm 22.5 E 15 20 1014.6 - 0.2 - Partly cloudy 10 - - - -
10/07:10pm 22.6 E 10 15 1014.3 - 0.2 - Partly cloudy 10 - - - -
10/07:00pm 22.6 ESE 9 15 1014.2 - 0.2 - Partly cloudy 10 - - - -
10/06:56pm 22.6 ESE 8 14 1014.2 - 0.2 - Partly cloudy 10 - - - -
10/06:52pm 22.6 E 9 16 1014.2 - 0.2 - Partly cloudy 10 - - - -
10/06:36pm 22.9 E 14 18 1014.1 - 0.2 - Partly cloudy 10 - - - -
10/06:30pm 22.8 E 12 18 1014.1 - 0.2 - Partly cloudy 10 - - - -
10/06:26pm 22.7 E 11 16 1014.1 - 0.2 - Partly cloudy 10 - - - -
10/06:00pm 22.8 E 9 15 1013.7 - 0.2 - Partly cloudy 10 - - - -
10/05:54pm 22.8 E 10 16 1013.7 - 0.2 - Partly cloudy 10 - - - -
10/05:30pm 22.7 E 10 16 1013.6 - 0.2 - Partly cloudy 10 - - - -
10/05:00pm 23.1 E 11 19 1013.5 - 0.2 - Partly cloudy 10 - - - -
10/04:30pm 23.6 E 14 21 1013.4 - 0.2 - Partly cloudy 10 - - - -
10/04:00pm 24.1 E 14 21 1013.3 - 0.2 - Partly cloudy 10 - - - -
10/03:30pm 23.7 E 14 20 1013.3 - 0.2 - Partly cloudy 10 - - - -
10/03:00pm 24.0 E 18 27 1013.4 R 0.2 Haze Mostly cloudy 20 - - - -
10/02:58pm 23.8 E 17 27 1013.3 - 0.2 - Partly cloudy 10 - - - -
10/02:30pm 24.0 E 17 23 1013.6 - 0.2 Showers Mostly clear 10 - - - -
10/02:00pm 24.4 E 17 23 1013.8 - 0.2 - Mostly clear 10 - - - -
10/01:45pm 24.5 E 15 25 1013.8 - 0.2 - Mostly clear 10 - - - -
10/01:30pm 24.1 E 17 23 1014.0 - 0.2 - Mostly clear 10 - - - -
10/01:11pm 24.2 E 17 27 1014.0 - 0.2 - Partly cloudy 10 - - - -
10/01:00pm 24.3 E 18 23 1014.0 - 0.2 - Partly cloudy 10 - - - -
10/12:30pm 24.3 E 18 24 1014.1 - 0.2 - Partly cloudy 10 - - - -
10/12:00pm 24.5 E 15 21 1014.3 R 0.2 Haze Mostly cloudy 20 - - - -
10/11:30am 24.4 E 17 24 1014.4 - 0.2 - Partly cloudy 10 - - - -
10/11:00am 24.3 E 15 20 1014.6 - 0.2 - Mostly cloudy 10 - - - -
10/10:30am 24.2 E 15 22 1014.7 - 0.2 - Partly cloudy 10 - - - -
10/10:00am 23.8 E 16 23 1014.3 - 0.0 - Partly cloudy 10 - - - -
10/09:30am 23.8 E 17 23 1014.2 - 0.0 - Partly cloudy 10 - - - -
10/09:00am 23.7 E 16 22 1014.2 F 6.6 Haze Partly cloudy 20 - - - -
10/08:30am 23.5 E 15 21 1014.0 - 6.6 - Partly cloudy 10 - - - -
10/08:00am 23.1 E 16 23 1013.9 - 6.6 - Partly cloudy 10 - - - -
10/07:30am 22.9 E 15 21 1013.5 - 6.6 - Mostly clear 10 - - - -
10/07:00am 22.6 E 16 23 1013.4 - 6.6 - Partly cloudy 10 - - - -
10/06:30am 22.2 E 16 23 1013.3 - 6.6 - Partly cloudy 10 - - - -
10/06:00am 22.0 ESE 9 21 1013.3 F 6.6 Haze Partly cloudy 25 - - - -
10/05:30am 22.0 E 12 20 1013.3 - 6.6 - - 10 - - - -
10/05:00am 21.9 E 12 19 1013.2 - 6.6 - Partly cloudy 10 - - - -
10/04:30am 22.0 ESE 8 14 1013.2 - 6.6 - Partly cloudy 10 - - - -
10/04:00am 21.8 ESE 9 18 1012.9 - 6.6 - Partly cloudy 10 - - - -
10/03:30am 21.9 ESE 9 17 1013.0 - 6.6 - - 10 - - - -
10/03:00am 21.8 ESE 9 17 1013.2 - 6.6 - - 10 - - - -
10/02:30am 21.9 E 13 22 1013.3 - 6.6 - - 10 - - - -
10/02:00am 21.9 E 14 23 1013.2 - 6.6 - - 10 - - - -
10/01:30am 21.9 E 12 20 1013.5 - 6.6 - Partly cloudy 10 - - - -
10/01:13am 22.1 E 15 31 1013.8 - 6.6 - Partly cloudy 10 - - - -
10/01:00am 22.1 ESE 9 21 1014.1 - 6.6 - Partly cloudy 10 - - - -
10/12:30am 21.9 ESE 11 24 1014.3 - 6.6 - Partly cloudy 10 - - - -
10/12:00am 21.9 E 12 19 1014.6 - 6.6 - - 10 - - - -
 
Date/Time
EDT
Temp

°C
Wind Pressure Rain
since 9am
mm
Weather Cloud Vis
km
Sea
Height
m
Swell
Dir
 
Speed
knots
Gust
knots
hPa Trend Height
m
Period
s
Dir
09/11:41pm 21.9 E 12 19 1014.9 - 6.6 - Partly cloudy 10 - - - -
09/11:31pm 21.9 E 15 25 1014.9 - 6.6 - Partly cloudy 9 - - - -
09/11:30pm 21.9 E 15 25 1014.8 - 6.6 - Partly cloudy 9 - - - -
09/11:00pm 22.4 ESE 11 21 1014.8 - 6.6 - Partly cloudy 10 - - - -
09/10:30pm 22.4 ESE 9 19 1014.9 - 6.6 - Partly cloudy 10 - - - -
09/10:00pm 22.5 SE 8 13 1014.9 - 6.6 - Partly cloudy 10 - - - -
09/09:30pm 22.4 E 10 16 1014.8 - 6.6 - Partly cloudy 10 - - - -
09/09:06pm 22.3 E 15 27 1014.8 - 6.6 - Partly cloudy 10 - - - -
09/09:00pm 22.5 E 12 18 1014.7 - 6.6 - Mostly cloudy 10 - - - -
09/08:30pm 22.4 SE 10 22 1014.3 - 6.6 - Partly cloudy 10 - - - -
09/08:00pm 22.5 SE 12 19 1014.3 - 6.6 - Partly cloudy 10 - - - -
09/07:53pm 22.5 E 15 26 1014.0 - 6.6 - Partly cloudy 10 - - - -
09/07:43pm 22.2 ESE 12 20 1014.0 - 6.6 - Partly cloudy 10 - - - -
09/07:30pm 22.1 SE 11 17 1014.1 - 6.6 - Partly cloudy 10 - - - -
09/07:28pm 22.1 SE 13 17 1014.1 - 6.6 - Partly cloudy 10 - - - -
09/07:22pm 22.2 E 15 21 1014.0 - 6.6 - Partly cloudy 10 - - - -
09/07:19pm 22.0 SE 8 17 1014.0 - 6.6 - Partly cloudy 10 - - - -
09/07:05pm 21.8 E 13 26 1013.7 - 6.4 - Partly cloudy 6 - - - -
09/07:02pm 22.1 E 13 26 1013.6 - 6.0 - Partly cloudy 8 - - - -
09/07:00pm 22.2 E 12 18 1013.6 - 6.0 - Partly cloudy 10 - - - -
09/06:44pm 22.1 ESE 11 23 1013.7 - 6.0 - Partly cloudy 9 - - - -
09/06:30pm 22.8 ESE 12 21 1013.3 - 5.8 - Partly cloudy 10 - - - -
09/06:26pm 22.8 E 13 23 1013.4 - 5.8 - Partly cloudy 10 - - - -
09/06:20pm 22.5 E 9 15 1013.1 - 5.8 - Partly cloudy 10 - - - -
09/06:00pm 22.5 ESE 10 23 1013.2 - 5.8 - Cloudy 10 - - - -
09/05:40pm 22.3 ENE 15 26 1012.5 - 5.8 - Partly cloudy 10 - - - -
09/05:30pm 22.4 S 9 13 1012.9 - 5.8 - Partly cloudy 10 - - - -
09/05:00pm 22.1 E 9 21 1012.8 - 5.8 - Partly cloudy 10 - - - -
09/04:48pm 21.9 E 12 21 1012.7 - 5.8 - Cloudy 10 - - - -
09/04:30pm 22.0 S 7 16 1012.8 - 5.8 - Cloudy 6 - - - -
09/04:22pm 22.0 E 7 16 1012.6 - 5.8 - Partly cloudy 10 - - - -
09/04:00pm 21.6 SE 7 15 1013.0 - 5.8 - Partly cloudy 2 - - - -
09/03:39pm 22.1 N 7 18 1012.9 - 2.8 - Partly cloudy 5 - - - -
09/03:36pm 22.2 S 9 18 1012.9 - 2.6 - Cloudy 10 - - - -
09/03:30pm 22.2 ESE 8 16 1012.8 - 2.6 - Cloudy 8 - - - -
09/03:16pm 22.2 ENE 6 16 1012.9 - 2.4 - Cloudy 6 - - - -
09/03:00pm 22.0 ESE 9 15 1012.9 R 2.2 Distant precip. Mostly cloudy 15 - - - -
09/02:30pm 22.9 ESE 8 15 1012.9 - 1.8 - Mostly cloudy 10 - - - -
09/02:00pm 22.7 WSW 7 13 1012.9 - 1.8 Showers Mostly cloudy 8 - - - -
09/01:30pm 23.3 SSE 6 10 1012.9 - 1.6 - Mostly cloudy 10 - - - -
09/01:00pm 23.1 SW 8 18 1013.1 - 1.6 Showers Mostly cloudy 10 - - - -
09/12:30pm 22.8 E 9 14 1013.1 - 1.6 - Mostly clear 10 - - - -
09/12:00pm 22.2 NW 7 16 1013.0 R 1.6 Showers Mostly cloudy 10 - - - -
09/11:41am 22.2 ESE 11 19 1012.8 - 0.8 Showers Mostly cloudy 3 - - - -
09/11:30am 23.2 SSE 8 16 1012.8 - 0.4 - Mostly cloudy 10 - - - -
09/11:00am 23.2 NNW 9 33 1012.8 - 0.4 - Mostly cloudy 10 - - - -
09/10:30am 23.1 SSW 8 20 1013.1 - 0.0 Showers Mostly cloudy 10 - - - -
09/10:00am 23.2 SSW 11 25 1013.0 - 0.0 - Mostly cloudy 10 - - - -
09/09:30am 22.7 SSE 9 17 1013.0 - 0.0 - Mostly cloudy 10 - - - -
09/09:00am 23.6 S 11 25 1012.7 R 3.0 Fine Mostly cloudy 25 - - - -
09/08:30am 22.5 E 5 8 1012.6 - 3.0 - Mostly cloudy 10 - - - -
09/08:00am 22.5 S 8 17 1012.3 - 3.0 - Mostly cloudy 10 - - - -
09/07:30am 22.0 SSE 7 11 1012.3 - 3.0 - Mostly cloudy 10 - - - -
09/07:14am 22.5 SSW 11 21 1011.9 - 1.8 Showers Mostly cloudy 2 - - - -
09/07:00am 22.5 SE 8 14 1011.7 - 1.6 - Mostly cloudy 10 - - - -
09/06:30am 22.4 S 11 22 1011.3 - 1.6 Showers Mostly cloudy 10 - - - -
09/06:00am 21.9 SSW 10 24 1011.3 R 1.6 Distant precip. Mostly cloudy 30 - - - -
09/05:39am 21.6 S 9 15 1011.1 - 1.6 - Partly cloudy 10 - - - -
09/05:30am 21.8 SSW 10 24 1011.0 - 1.6 - Cloudy 7 - - - -
09/05:18am 21.4 SSW 11 19 1011.2 - 1.6 - Cloudy 6 - - - -
09/05:00am 22.6 SSW 11 22 1010.8 - 1.2 - Cloudy 10 - - - -
09/04:30am 22.6 SSW 13 24 1010.5 - 1.2 - Partly cloudy 10 - - - -
09/04:00am 22.3 SSW 10 23 1010.5 - 1.2 - Partly cloudy 10 - - - -
09/03:44am 22.2 SSW 12 20 1010.5 - 1.2 - Partly cloudy 10 - - - -
09/03:30am 21.8 SSW 13 28 1010.5 - 1.2 - Cloudy 5 - - - -
09/03:28am 21.7 SSW 13 28 1010.6 - 1.2 - Partly cloudy 6 - - - -
09/03:00am 22.3 SSW 12 23 1010.5 - 1.0 - Cloudy 10 - - - -
09/02:30am 22.1 SSW 12 22 1010.7 - 1.0 - Partly cloudy 10 - - - -
09/02:28am 22.2 SW 12 22 1010.6 - 1.0 - Partly cloudy 10 - - - -
09/02:16am 21.3 SSW 12 21 1010.7 - 1.0 - Partly cloudy 6 - - - -
09/02:00am 22.5 SSW 11 19 1010.8 - 0.8 - Cloudy 10 - - - -
09/01:30am 22.2 SSW 12 22 1010.9 - 0.8 - Partly cloudy 10 - - - -
09/01:25am 22.4 SSW 13 24 1011.0 - 0.8 - Partly cloudy 10 - - - -
09/01:08am 21.9 SSW 12 27 1011.1 - 0.8 - Partly cloudy 6 - - - -
09/01:00am 22.2 SSW 12 25 1011.2 - 0.8 - Partly cloudy 10 - - - -
09/12:30am 21.6 SSW 11 22 1011.6 - 0.8 - Partly cloudy 9 - - - -
09/12:03am 21.8 SSW 15 24 1011.8 - 0.2 - Cloudy 8 - - - -
09/12:00am 22.0 S 6 11 1011.9 - 0.2 - Mostly cloudy 10 - - - -
 
Date/Time
EDT
Temp

°C
Wind Pressure Rain
since 9am
mm
Weather Cloud Vis
km
Sea
Height
m
Swell
Dir
 
Speed
knots
Gust
knots
hPa Trend Height
m
Period
s
Dir
08/11:30pm 22.8 SSW 11 18 1012.0 - 0.2 - Partly cloudy 10 - - - -
08/11:00pm 22.4 SSW 12 21 1012.1 - 0.2 - Partly cloudy 10 - - - -
08/10:30pm 22.4 SSW 11 18 1012.3 - 0.2 - Partly cloudy 10 - - - -
08/10:00pm 22.5 S 12 22 1012.5 - 0.2 - Partly cloudy 10 - - - -
08/09:30pm 22.0 SSW 9 16 1012.4 - 0.2 - Partly cloudy 10 - - - -
08/09:15pm 21.8 SSW 11 21 1012.5 - 0.2 - Cloudy 10 - - - -
08/09:03pm 21.6 S 9 15 1012.4 - 0.2 - Partly cloudy 6 - - - -
08/09:00pm 22.0 SSW 11 19 1012.3 - 0.0 - Cloudy 8 - - - -
08/08:30pm 21.9 SSE 7 11 1012.0 - 0.0 - Partly cloudy 10 - - - -
08/08:00pm 22.5 SSW 14 27 1011.7 - 0.0 - Partly cloudy 10 - - - -
08/07:30pm 22.1 SSW 11 19 1011.6 - 0.0 - Partly cloudy 10 - - - -
08/07:00pm 22.7 SSW 14 26 1011.4 - 0.0 - Cloudy 10 - - - -
08/06:30pm 22.8 SSW 12 24 1011.0 - 0.0 - Partly cloudy 10 - - - -
08/06:00pm 23.6 S 12 23 1010.8 - 0.0 - Cloudy 10 - - - -
08/05:30pm 24.0 S 10 23 1010.7 - 0.0 - Cloudy 10 - - - -
08/05:00pm 24.2 SSW 11 19 1010.8 - 0.0 - Partly cloudy 10 - - - -
08/04:30pm 23.6 SSW 11 23 1011.0 - 0.0 - Cloudy 10 - - - -
08/04:00pm 23.8 SSW 11 19 1011.1 - 0.0 - Partly cloudy 10 - - - -
08/03:30pm 22.7 S 11 18 1011.3 - 0.0 - Partly cloudy 10 - - - -
08/03:00pm 23.5 SSW 9 15 1011.5 - 0.0 - Cloudy 10 - - - -
08/02:30pm 23.4 S 11 21 1011.7 - 0.0 - Partly cloudy 10 - - - -
08/02:00pm 23.6 SSW 11 19 1011.8 - 0.0 - Partly cloudy 10 - - - -
08/01:30pm 23.7 SSW 11 20 1012.2 - 0.0 - Partly cloudy 10 - - - -
08/01:00pm 23.1 SSW 11 19 1012.4 - 0.0 - Cloudy 10 - - - -
08/12:30pm 23.0 SSW 9 18 1012.5 - 0.0 - Partly cloudy 10 - - - -
08/12:00pm 23.0 SSW 10 22 1012.7 - 0.0 - Mostly cloudy 10 - - - -
08/11:30am 23.9 S 9 16 1012.9 - 0.0 - Partly cloudy 10 - - - -
08/11:00am 23.4 S 10 17 1012.9 - 0.0 - Partly cloudy 10 - - - -
08/10:30am 23.6 SSW 11 21 1013.0 - 0.0 - Partly cloudy 10 - - - -
08/10:00am 23.6 SSE 6 13 1012.9 - 0.0 - Partly cloudy 10 - - - -
08/09:30am 22.8 SW 5 11 1012.8 - 0.0 - Partly cloudy 10 - - - -
08/09:00am 22.6 SSW 9 17 1012.9 - 4.2 - Mostly cloudy 10 - - - -
08/08:30am 22.4 S 9 22 1012.9 - 4.2 - Cloudy 10 - - - -
08/08:00am 22.3 SSW 7 16 1012.9 - 4.2 - Partly cloudy 10 - - - -
08/07:30am 21.6 SSW 10 19 1012.8 - 4.2 - Partly cloudy 10 - - - -
08/07:20am 21.3 SSE 6 12 1012.6 - 4.2 - Partly cloudy 10 - - - -
08/07:00am 20.9 SSE 6 15 1012.6 - 3.8 - Partly cloudy 5 - - - -
08/06:39am 20.9 S 9 19 1012.5 - 3.4 - Partly cloudy 6 - - - -
08/06:31am 21.3 S 11 18 1012.4 - 3.4 - Partly cloudy 10 - - - -
08/06:30am 21.2 S 11 18 1012.3 - 3.4 - Partly cloudy 10 - - - -
08/06:23am 21.1 SE 7 10 1012.3 - 3.4 - Partly cloudy 10 - - - -
08/06:00am 20.3 S 10 19 1012.1 - 3.2 - Cloudy 5 - - - -
08/05:30am 21.7 SSW 14 22 1011.7 - 2.6 - Partly cloudy 10 - - - -
08/05:00am 21.7 S 8 14 1011.5 - 2.6 - Partly cloudy 10 - - - -
08/04:30am 21.8 SSW 11 21 1011.6 - 2.6 - Partly cloudy 10 - - - -
08/04:00am 21.6 SSW 11 16 1011.5 - 2.6 - - 10 - - - -
08/03:30am 21.5 ESE 6 11 1011.8 - 2.6 - - 10 - - - -
08/03:00am 22.0 S 10 15 1011.9 - 2.6 - Partly cloudy 10 - - - -
08/02:30am 21.2 SE 5 8 1012.0 - 2.6 - - 10 - - - -
08/02:00am 21.4 ESE 5 9 1012.3 - 2.6 - Partly cloudy 10 - - - -
08/01:30am 21.8 SE 7 12 1012.5 - 2.6 - Partly cloudy 10 - - - -
08/01:00am 21.4 SE 5 7 1012.8 - 2.6 - Partly cloudy 10 - - - -
08/12:30am 21.3 S 5 9 1013.2 - 2.6 - Partly cloudy 10 - - - -
08/12:15am 21.5 SSE 7 15 1013.2 - 2.6 - Partly cloudy 10 - - - -
08/12:00am 20.2 SSW 2 5 1013.3 - 2.6 - Cloudy 5 - - - -
 
Date/Time
EDT
Temp

°C
Wind Pressure Rain
since 9am
mm
Weather Cloud Vis
km
Sea
Height
m
Swell
Dir
 
Speed
knots
Gust
knots
hPa Trend Height
m
Period
s
Dir
07/11:55pm 20.4 SW 2 6 1013.3 - 2.4 - Partly cloudy 6 - - - -
07/11:50pm 20.7 WSW 1 6 1013.4 - 2.0 - Partly cloudy 10 - - - -
07/11:34pm 20.5 SSW 5 9 1013.4 - 2.0 - Partly cloudy 6 - - - -
07/11:30pm 20.7 W 3 7 1013.4 - 1.8 - Partly cloudy 10 - - - -
07/11:08pm 20.8 SSE 5 9 1013.7 - 1.8 - Partly cloudy 10 - - - -
07/11:00pm 20.9 SSE 6 11 1013.7 - 1.8 - Partly cloudy 9 - - - -
07/10:46pm 20.3 ESE 5 9 1013.9 - 1.8 - Partly cloudy 4 - - - -
07/10:34pm 20.7 SE 6 9 1014.0 - 1.8 - Partly cloudy 6 - - - -
07/10:30pm 20.7 ESE 7 12 1014.0 - 1.6 - Partly cloudy 10 - - - -
07/10:22pm 20.8 ESE 3 11 1013.9 - 1.6 - Partly cloudy 10 - - - -
07/10:05pm 21.3 SSE 4 8 1013.8 - 1.6 - Partly cloudy 6 - - - -
07/10:00pm 21.5 ESE 3 5 1013.8 - 1.6 - Partly cloudy 10 - - - -
07/09:30pm 21.6 ESE 3 10 1013.7 - 1.6 - Partly cloudy 10 - - - -
07/09:00pm 21.5 S 5 9 1013.4 - 1.6 - Cloudy 10 - - - -
07/08:30pm 21.8 SSE 5 9 1013.3 - 1.6 - Partly cloudy 10 - - - -

Other Formats:

Comma delimited format used in spreadsheet applications
http://www.bom.gov.au/fwo/IDN60701/IDN60701.94995.axf

JavaScript Object Notation format (JSON) in row-major order
http://www.bom.gov.au/fwo/IDN60701/IDN60701.94995.json